Time;durP1;ratioP1;P1;durP2;ratioP2;P2;SDS_P1;SDS_P2;PMS_P1;PMS_P2;Temp;Humidity;BMP_temperature;BMP_pressure;BME280_temperature;BME280_humidity;BME280_pressure;Samples;Min_cycle;Max_cycle;Signal;HPM_P1;HPM_P2
2022/02/12 00:01:16;;;;;;;1.53;1.30;;;0.00;99.90;;;;;;7407556;19;20315;-83
2022/02/12 00:03:42;;;;;;;1.35;1.25;;;0.00;99.90;;;;;;7416531;19;21663;-83
2022/02/12 00:06:08;;;;;;;1.85;1.50;;;0.10;99.90;;;;;;7409737;19;20340;-83
2022/02/12 00:08:41;;;;;;;1.45;1.23;;;0.00;99.90;;;;;;7415214;19;20316;-85
2022/02/12 00:11:42;;;;;;;2.55;1.30;;;-0.10;99.90;;;;;;7311731;19;2004449;-83
2022/02/12 00:14:28;;;;;;;2.33;1.50;;;-0.10;99.90;;;;;;7310603;19;2004412;-84
2022/02/12 00:16:54;;;;;;;2.05;1.48;;;-0.20;99.90;;;;;;7414119;19;20309;-84
2022/02/12 00:22:30;;;;;;;2.50;1.30;;;-0.20;99.90;;;;;;7399721;19;20344;-83
2022/02/12 00:25:36;;;;;;;1.90;1.57;;;-0.30;99.90;;;;;;7393560;19;20312;-86
2022/02/12 00:28:23;;;;;;;3.20;1.33;;;-0.40;99.90;;;;;;7387901;19;20333;-82
2022/02/12 00:30:49;;;;;;;1.93;1.47;;;-0.30;99.90;;;;;;7379376;19;20380;-82
2022/02/12 00:33:17;;;;;;;2.10;1.38;;;-0.30;99.90;;;;;;7396460;19;20328;-83
2022/02/12 00:35:44;;;;;;;1.55;1.40;;;-0.30;99.90;;;;;;7397075;19;20356;-82
2022/02/12 00:38:26;;;;;;;2.47;1.58;;;-0.30;99.90;;;;;;7295849;19;20332;-82
2022/02/12 00:41:05;;;;;;;1.77;1.27;;;-0.40;99.90;;;;;;7340177;19;20319;-82
2022/02/12 00:44:15;;;;;;;1.95;1.50;;;-0.40;99.90;;;;;;7331631;19;20332;-81
2022/02/12 00:46:42;;;;;;;2.45;1.38;;;-0.40;99.90;;;;;;7294196;19;20332;-82
2022/02/12 00:49:30;;;;;;;1.98;1.35;;;-0.50;99.90;;;;;;7296407;19;2004546;-83
2022/02/12 00:52:15;;;;;;;1.75;1.40;;;-0.50;99.90;;;;;;7397001;19;20398;-81
2022/02/12 00:55:00;;;;;;;1.55;1.30;;;-0.50;99.90;;;;;;7297182;19;2004668;-80
2022/02/12 00:57:31;;;;;;;2.28;1.55;;;-0.60;99.90;;;;;;7306823;19;20384;-82
2022/02/12 01:00:04;;;;;;;1.70;1.40;;;-0.60;99.90;;;;;;7269305;19;2004628;-82
2022/02/12 01:02:31;;;;;;;1.75;1.48;;;-0.60;99.90;;;;;;7396541;19;20329;-82
2022/02/12 01:05:04;;;;;;;3.42;1.60;;;-0.60;99.90;;;;;;7395172;19;20689;-82
2022/02/12 01:07:50;;;;;;;1.40;1.20;;;-0.70;99.90;;;;;;7395819;19;20323;-81
2022/02/12 01:10:52;;;;;;;1.20;1.10;;;-0.60;99.90;;;;;;7398690;19;20364;-82
2022/02/12 01:13:41;;;;;;;1.00;1.00;;;-0.70;99.90;;;;;;7166537;19;2004746;-82
2022/02/12 01:16:08;;;;;;;4.30;1.67;;;-0.80;99.90;;;;;;7289694;19;20325;-82
2022/02/12 01:18:55;;;;;;;1.80;1.43;;;-0.80;99.90;;;;;;7234167;19;20315;-83
2022/02/12 01:22:09;;;;;;;2.50;1.80;;;-0.80;99.90;;;;;;7344397;19;20327;-82
2022/02/12 01:25:08;;;;;;;1.92;1.38;;;-0.90;99.90;;;;;;7399650;19;20309;-81
2022/02/12 01:27:54;;;;;;;1.63;1.52;;;-0.90;99.90;;;;;;7299852;19;20888;-82
2022/02/12 01:30:35;;;;;;;1.90;1.20;;;-0.90;99.90;;;;;;7281470;19;20336;-82
2022/02/12 01:33:21;;;;;;;1.40;1.30;;;-0.80;99.90;;;;;;7299420;19;20324;-82
2022/02/12 01:36:30;;;;;;;2.78;1.63;;;-0.90;99.90;;;;;;7245115;19;2004456;-83
2022/02/12 01:39:04;;;;;;;1.65;1.48;;;-0.90;99.90;;;;;;7192877;19;2004495;-81
2022/02/12 01:42:03;;;;;;;1.30;1.20;;;-0.90;99.90;;;;;;7348015;19;20641;-82
2022/02/12 01:45:08;;;;;;;1.77;1.48;;;-1.00;99.90;;;;;;7216463;19;2004322;-83
2022/02/12 01:48:25;;;;;;;3.90;1.33;;;-1.00;99.90;;;;;;7194961;19;2004332;-82
2022/02/12 01:50:52;;;;;;;1.45;1.30;;;-1.10;99.90;;;;;;7269707;19;2004415;-81
2022/02/12 02:03:40;;;;;;;2.72;1.63;;;-1.10;99.90;;;;;;7405251;19;20343;-83
2022/02/12 02:07:02;;;;;;;2.00;1.27;;;-1.20;99.90;;;;;;7338121;19;20315;-82
2022/02/12 02:09:48;;;;;;;1.90;1.48;;;-1.20;99.90;;;;;;7192077;19;2004452;-81
2022/02/12 02:12:15;;;;;;;2.30;1.60;;;-1.20;99.90;;;;;;7362444;19;20352;-82
2022/02/12 02:15:01;;;;;;;1.87;1.67;;;-1.20;99.90;;;;;;7373834;19;20359;-81
2022/02/12 02:17:28;;;;;;;2.75;1.70;;;-1.20;99.90;;;;;;7334795;19;20304;-82
2022/02/12 02:19:55;;;;;;;4.85;1.75;;;-1.20;99.90;;;;;;7371881;19;20305;-82
2022/02/12 02:22:25;;;;;;;2.47;1.55;;;-1.30;99.90;;;;;;7394461;19;20304;-81
2022/02/12 02:24:50;;;;;;;2.65;1.80;;;-1.30;99.90;;;;;;7393428;19;20308;-82
2022/02/12 02:27:18;;;;;;;1.77;1.50;;;-1.30;99.90;;;;;;7395960;19;20383;-82
2022/02/12 02:30:02;;;;;;;2.05;1.52;;;-1.30;99.90;;;;;;7391350;19;20308;-82
2022/02/12 02:32:28;;;;;;;2.40;1.60;;;-1.40;99.90;;;;;;7395170;19;20394;-82
2022/02/12 02:34:54;;;;;;;1.73;1.50;;;-1.40;99.90;;;;;;7395033;19;20317;-82
2022/02/12 02:37:21;;;;;;;1.67;1.40;;;-1.50;99.90;;;;;;7394565;19;20382;-81
2022/02/12 02:39:47;;;;;;;1.52;1.42;;;-1.50;99.90;;;;;;7394282;19;20334;-81
2022/02/12 02:42:13;;;;;;;2.33;1.60;;;-1.50;99.90;;;;;;7394133;19;20342;-81
2022/02/12 02:44:39;;;;;;;1.50;1.40;;;-1.50;99.90;;;;;;7378153;19;20687;-81
2022/02/12 02:47:33;;;;;;;3.97;1.63;;;-1.50;99.90;;;;;;7371541;19;20403;-82
2022/02/12 02:49:52;;;;;;;1.60;1.50;;;-1.50;99.90;;;;;;7283430;19;2004422;-82
2022/02/12 02:58:33;;;;;;;2.25;1.50;;;-1.50;99.90;;;;;;7323706;19;20316;-80
2022/02/12 03:01:38;;;;;;;3.23;1.83;;;-1.50;99.90;;;;;;7260184;19;2004477;-80
2022/02/12 03:04:06;;;;;;;4.28;1.60;;;-1.50;99.90;;;;;;7274589;19;2004281;-81
2022/02/12 03:06:58;;;;;;;1.45;1.35;;;-1.50;99.90;;;;;;7383013;19;20369;-82
2022/02/12 03:09:43;;;;;;;5.80;1.55;;;-1.60;99.90;;;;;;7278134;19;2005407;-81
2022/02/12 03:12:10;;;;;;;1.65;1.45;;;-1.60;99.90;;;;;;7359847;19;20352;-80
2022/02/12 03:14:37;;;;;;;1.52;1.33;;;-1.60;99.90;;;;;;7318852;19;20312;-82
2022/02/12 03:17:12;;;;;;;2.28;1.63;;;-1.70;99.90;;;;;;7382514;19;20315;-82
2022/02/12 03:19:57;;;;;;;2.47;1.67;;;-1.70;99.90;;;;;;7280063;19;2004439;-81
2022/02/12 03:22:23;;;;;;;2.30;1.37;;;-1.80;99.90;;;;;;7387842;19;20349;-82
2022/02/12 03:24:49;;;;;;;1.65;1.55;;;-1.60;99.90;;;;;;7325010;19;20321;-82
2022/02/12 03:27:24;;;;;;;1.30;1.10;;;-1.80;99.90;;;;;;7376042;19;20329;-82
2022/02/12 03:30:03;;;;;;;1.42;1.27;;;-1.80;99.90;;;;;;7382659;19;20727;-82
2022/02/12 03:32:29;;;;;;;1.10;1.10;;;-1.90;99.90;;;;;;7386829;19;20365;-82
2022/02/12 03:34:56;;;;;;;0.95;0.93;;;-1.80;99.90;;;;;;7389135;19;20300;-82
2022/02/12 03:37:26;;;;;;;2.20;1.30;;;-1.80;99.90;;;;;;7392167;19;20337;-81
2022/02/12 03:39:52;;;;;;;1.38;1.27;;;-1.70;99.90;;;;;;7386623;19;20350;-81
2022/02/12 03:42:23;;;;;;;1.65;1.30;;;-1.80;99.90;;;;;;7398215;19;20320;-82
2022/02/12 03:45:36;;;;;;;1.60;1.00;;;-1.80;99.90;;;;;;7377425;19;20312;-81
2022/02/12 03:48:03;;;;;;;3.72;1.42;;;-1.80;99.90;;;;;;7291185;19;2004418;-81
2022/02/12 03:50:31;;;;;;;1.35;1.25;;;-1.80;99.90;;;;;;7391336;19;20424;-82
2022/02/12 03:52:57;;;;;;;0.93;0.93;;;-1.80;99.90;;;;;;7391444;19;20320;-81
2022/02/12 03:55:23;;;;;;;1.15;1.05;;;-1.80;99.90;;;;;;7392633;19;20970;-82
2022/02/12 03:57:49;;;;;;;1.80;1.38;;;-1.90;99.90;;;;;;7394178;19;20366;-81
2022/02/12 04:00:15;;;;;;;1.60;1.10;;;-1.90;99.90;;;;;;7394519;19;20314;-82
2022/02/12 04:02:41;;;;;;;2.88;1.42;;;-2.00;99.90;;;;;;7394392;19;20376;-81
2022/02/12 04:05:10;;;;;;;1.70;1.50;;;-2.00;99.90;;;;;;7390632;19;20325;-81
2022/02/12 04:07:38;;;;;;;0.90;0.90;;;-2.10;99.90;;;;;;7369133;19;20309;-80
2022/02/12 04:10:05;;;;;;;3.10;1.30;;;-2.10;99.90;;;;;;7386592;19;20416;-80
2022/02/12 04:12:30;;;;;;;1.35;1.10;;;-2.10;99.90;;;;;;7391877;19;20336;-81
2022/02/12 04:14:56;;;;;;;1.27;1.17;;;-2.10;99.90;;;;;;7389187;19;20323;-82
2022/02/12 04:17:24;;;;;;;1.45;1.35;;;-2.20;99.90;;;;;;7391254;19;20623;-82
2022/02/12 04:19:53;;;;;;;1.53;1.13;;;-2.20;99.90;;;;;;7394965;19;20312;-80
2022/02/12 04:22:34;;;;;;;1.05;0.93;;;-2.20;99.90;;;;;;7390951;19;22261;-81
2022/02/12 04:25:03;;;;;;;2.67;1.20;;;-2.20;99.90;;;;;;7388410;19;20379;-80
2022/02/12 04:27:28;;;;;;;1.38;1.27;;;-2.20;99.90;;;;;;7392026;19;20317;-80
2022/02/12 04:29:56;;;;;;;1.67;1.58;;;-2.20;99.90;;;;;;7393297;19;20297;-81
2022/02/12 04:32:22;;;;;;;1.20;1.10;;;-2.20;99.90;;;;;;7395007;19;20863;-81
2022/02/12 04:34:49;;;;;;;1.63;1.10;;;-2.20;99.90;;;;;;7387093;19;20372;-81
2022/02/12 04:37:16;;;;;;;1.30;1.20;;;-2.20;99.90;;;;;;7389573;19;20345;-82
2022/02/12 04:39:42;;;;;;;1.40;1.20;;;-2.30;99.90;;;;;;7364228;19;20330;-81
2022/02/12 04:42:11;;;;;;;1.20;1.13;;;-2.30;99.90;;;;;;7391195;19;20337;-82
2022/02/12 04:44:40;;;;;;;1.42;1.17;;;-2.30;99.90;;;;;;7390336;19;21096;-80
2022/02/12 04:47:06;;;;;;;1.48;1.17;;;-2.30;99.90;;;;;;7391031;19;20323;-81
2022/02/12 04:49:33;;;;;;;1.08;1.00;;;-2.30;99.90;;;;;;7397084;19;20436;-81
2022/02/12 04:51:59;;;;;;;1.15;1.13;;;-2.30;99.90;;;;;;7398839;19;20323;-81
2022/02/12 04:54:24;;;;;;;1.27;1.17;;;-2.30;99.90;;;;;;7396935;19;20309;-81
2022/02/12 04:56:50;;;;;;;1.35;1.13;;;-2.40;99.90;;;;;;7400087;19;20348;-81
2022/02/12 04:59:17;;;;;;;0.95;0.93;;;-2.40;99.90;;;;;;7397404;19;20316;-81
2022/02/12 05:01:43;;;;;;;1.30;1.20;;;-2.50;99.90;;;;;;7374803;19;20269;-80
2022/02/12 05:04:10;;;;;;;2.60;1.50;;;-2.50;99.90;;;;;;7394310;19;20292;-80
2022/02/12 05:06:36;;;;;;;0.90;0.90;;;-2.50;99.90;;;;;;7397011;19;20320;-80
2022/02/12 05:09:09;;;;;;;1.55;1.15;;;-2.60;99.90;;;;;;7377572;19;20363;-81
2022/02/12 05:11:35;;;;;;;1.13;1.10;;;-2.60;99.90;;;;;;7376015;19;20304;-80
2022/02/12 05:14:01;;;;;;;0.97;0.97;;;-2.70;99.90;;;;;;7396125;19;20747;-80
2022/02/12 05:16:26;;;;;;;1.40;1.30;;;-2.70;99.90;;;;;;7393723;19;20296;-80
2022/02/12 05:19:00;;;;;;;1.13;1.13;;;-2.70;99.90;;;;;;7384009;19;20339;-81
2022/02/12 05:21:26;;;;;;;1.20;1.13;;;-2.70;99.90;;;;;;7405072;19;20292;-82
2022/02/12 05:23:51;;;;;;;1.00;1.00;;;-2.70;99.90;;;;;;7394659;19;20866;-81
2022/02/12 05:26:17;;;;;;;1.33;1.27;;;-2.70;99.90;;;;;;7393497;19;20320;-80
2022/02/12 05:28:43;;;;;;;1.50;1.40;;;-2.80;99.90;;;;;;7395400;19;20476;-80
2022/02/12 05:31:09;;;;;;;1.40;1.30;;;-2.70;99.90;;;;;;7397825;19;20348;-81
2022/02/12 05:33:37;;;;;;;1.60;1.50;;;-2.80;99.90;;;;;;7396924;19;20340;-81
2022/02/12 05:36:10;;;;;;;1.55;1.45;;;-2.80;99.90;;;;;;7397038;19;20348;-81
2022/02/12 05:38:42;;;;;;;1.67;1.57;;;-2.80;99.90;;;;;;7394083;19;20367;-80
2022/02/12 05:41:11;;;;;;;3.80;1.50;;;-2.90;99.90;;;;;;7393745;19;20329;-80
2022/02/12 05:43:37;;;;;;;2.80;1.60;;;-2.90;99.90;;;;;;7392648;19;20312;-81
2022/02/12 05:46:03;;;;;;;1.40;1.30;;;-2.90;99.90;;;;;;7395264;19;20308;-80
2022/02/12 05:48:38;;;;;;;2.90;1.42;;;-2.90;99.90;;;;;;7393059;19;20634;-80
2022/02/12 05:51:04;;;;;;;1.90;1.70;;;-2.90;99.90;;;;;;7372626;19;20400;-81
2022/02/12 05:53:29;;;;;;;1.77;1.50;;;-2.90;99.90;;;;;;7394769;19;20831;-80
2022/02/12 05:55:55;;;;;;;1.33;1.20;;;-2.90;99.90;;;;;;7393398;19;20337;-81
2022/02/12 05:58:21;;;;;;;2.40;1.40;;;-2.80;99.90;;;;;;7392209;19;20847;-80
2022/02/12 06:00:48;;;;;;;2.10;1.47;;;-2.80;99.90;;;;;;7392562;19;20312;-79
2022/02/12 06:03:14;;;;;;;2.08;1.92;;;-2.80;99.90;;;;;;7393589;19;20349;-81
2022/02/12 06:05:39;;;;;;;1.90;1.77;;;-2.80;99.90;;;;;;7392337;19;20346;-81
2022/02/12 06:08:05;;;;;;;1.73;1.63;;;-2.80;99.90;;;;;;7395733;19;20317;-80
2022/02/12 06:10:31;;;;;;;5.80;1.88;;;-2.80;99.90;;;;;;7393168;19;20381;-80
2022/02/12 06:12:57;;;;;;;6.30;4.50;;;-2.80;99.90;;;;;;7396714;19;20332;-80
2022/02/12 06:15:23;;;;;;;6.70;5.80;;;-2.60;99.90;;;;;;7363097;19;20686;-82
2022/02/12 06:17:49;;;;;;;4.57;3.75;;;-2.60;99.90;;;;;;7393818;19;20328;-81
2022/02/12 06:20:14;;;;;;;3.00;2.75;;;-2.70;99.90;;;;;;7395719;19;20844;-81
2022/02/12 06:22:40;;;;;;;2.10;1.90;;;-2.70;99.90;;;;;;7390123;19;20432;-81
2022/02/12 06:25:06;;;;;;;5.45;3.15;;;-2.90;99.90;;;;;;7393381;19;20338;-81
2022/02/12 06:27:32;;;;;;;2.60;2.10;;;-2.80;99.90;;;;;;7395262;19;20312;-81
2022/02/12 06:29:58;;;;;;;2.00;1.70;;;-2.80;99.90;;;;;;7393727;19;20313;-81
2022/02/12 06:32:23;;;;;;;1.80;1.70;;;-2.70;99.90;;;;;;7393467;19;20320;-81
2022/02/12 06:34:51;;;;;;;1.70;1.60;;;-2.70;99.90;;;;;;7395849;19;20341;-81
2022/02/12 06:37:20;;;;;;;1.50;1.40;;;-2.70;99.90;;;;;;7397399;19;20334;-80
2022/02/12 06:39:47;;;;;;;2.90;1.77;;;-2.60;99.90;;;;;;7395577;19;20388;-81
2022/02/12 06:42:13;;;;;;;2.92;2.03;;;-2.70;99.90;;;;;;7398025;19;20317;-81
2022/02/12 06:44:39;;;;;;;2.00;1.80;;;-2.70;99.90;;;;;;7397925;19;20847;-80
2022/02/12 06:47:30;;;;;;;1.53;1.43;;;-2.70;99.90;;;;;;7379333;19;20309;-80
2022/02/12 06:50:07;;;;;;;2.13;1.93;;;-2.70;99.90;;;;;;7341799;19;20353;-80
2022/02/12 06:52:39;;;;;;;1.48;1.40;;;-2.70;99.90;;;;;;7377799;19;20724;-80
2022/02/12 06:56:03;;;;;;;2.22;2.03;;;-2.60;99.90;;;;;;7391849;19;20324;-78
2022/02/12 06:58:30;;;;;;;3.90;2.67;;;-2.60;99.90;;;;;;7390050;19;20336;-78
2022/02/12 07:00:57;;;;;;;2.37;2.07;;;-2.70;99.90;;;;;;7413198;19;20349;-78
2022/02/12 07:06:43;;;;;;;2.97;2.55;;;-2.60;99.90;;;;;;7403314;19;20356;-78
2022/02/12 07:09:43;;;;;;;2.72;2.25;;;-2.60;99.90;;;;;;7378023;19;20328;-82
2022/02/12 07:13:13;;;;;;;5.03;2.60;;;-2.60;99.90;;;;;;7425647;19;20355;-82
2022/02/12 07:16:40;;;;;;;2.38;2.08;;;-2.50;99.90;;;;;;7392661;19;20320;-81
2022/02/12 07:20:05;;;;;;;2.42;2.22;;;-2.40;99.90;;;;;;7415962;19;20343;-77
2022/02/12 07:23:09;;;;;;;2.83;2.55;;;-2.30;99.90;;;;;;7261465;19;2004435;-79
2022/02/12 07:25:39;;;;;;;3.78;3.00;;;-2.20;99.90;;;;;;7382694;19;20328;-78
2022/02/12 07:28:16;;;;;;;4.22;3.08;;;-2.20;99.90;;;;;;7397956;19;20324;-81
2022/02/12 07:30:42;;;;;;;4.72;3.30;;;-2.20;99.90;;;;;;7288228;19;2004394;-78
2022/02/12 07:33:35;;;;;;;3.05;2.70;;;-2.20;99.90;;;;;;7292570;19;2004525;-79
2022/02/12 07:36:30;;;;;;;9.43;3.97;;;-2.10;99.90;;;;;;7291766;19;2005047;-80
2022/02/12 07:38:59;;;;;;;4.93;3.70;;;-2.00;99.90;;;;;;7395859;19;20348;-81
2022/02/12 07:41:27;;;;;;;3.65;3.25;;;-2.00;99.90;;;;;;7390123;19;20337;-80
2022/02/12 07:43:53;;;;;;;2.67;2.42;;;-2.00;99.90;;;;;;7387666;19;20432;-80
2022/02/12 07:46:19;;;;;;;7.15;3.85;;;-1.80;99.90;;;;;;7388879;19;20360;-79
2022/02/12 07:48:47;;;;;;;4.63;3.63;;;-1.80;99.90;;;;;;7389350;19;20309;-78
2022/02/12 07:51:19;;;;;;;3.92;3.22;;;-1.70;99.90;;;;;;7388721;19;20325;-80
2022/02/12 07:53:46;;;;;;;3.63;3.33;;;-1.70;99.90;;;;;;7395986;19;20890;-80
2022/02/12 07:56:21;;;;;;;3.10;2.80;;;-1.70;99.90;;;;;;7389668;19;20309;-79
2022/02/12 07:58:48;;;;;;;3.35;2.67;;;-1.70;99.90;;;;;;7385876;19;20330;-79
2022/02/12 08:01:14;;;;;;;6.43;4.05;;;-1.60;99.90;;;;;;7387247;19;20353;-80
2022/02/12 08:03:40;;;;;;;3.60;3.30;;;-1.50;99.90;;;;;;7386996;19;20871;-79
2022/02/12 08:07:27;;;;;;;4.43;2.83;;;-1.40;99.90;;;;;;7370632;19;20387;-79
2022/02/12 08:08:54;;;;;;;5.53;2.53;;;-1.40;99.90;;;;;;7287746;19;2004479;-79
2022/02/12 08:11:23;;;;;;;5.90;3.10;;;-1.30;99.90;;;;;;7390661;19;20329;-79
2022/02/12 08:13:50;;;;;;;3.17;2.88;;;-1.30;99.90;;;;;;7356150;19;20321;-80
2022/02/12 08:16:20;;;;;;;7.88;3.72;;;-1.20;99.90;;;;;;7340642;19;20352;-79
2022/02/12 08:18:47;;;;;;;5.97;3.75;;;-1.20;99.90;;;;;;7390794;19;20752;-79
2022/02/12 08:21:35;;;;;;;4.47;4.03;;;-1.20;99.90;;;;;;7285263;19;2004426;-78
2022/02/12 08:24:01;;;;;;;8.37;3.20;;;-1.10;99.90;;;;;;7391634;19;20313;-78
2022/02/12 08:26:26;;;;;;;4.15;3.28;;;-1.10;99.90;;;;;;7393730;19;20372;-80
2022/02/12 08:28:52;;;;;;;23.43;13.37;;;-1.00;99.90;;;;;;7394151;19;20312;-79
2022/02/12 08:31:18;;;;;;;25.75;13.23;;;-1.00;99.90;;;;;;7392399;19;20348;-80
2022/02/12 08:33:44;;;;;;;29.20;15.50;;;-0.90;99.90;;;;;;7393443;19;20335;-79
2022/02/12 08:36:10;;;;;;;20.40;11.23;;;-0.70;99.90;;;;;;7393129;19;20304;-79
2022/02/12 08:38:36;;;;;;;50.08;20.27;;;-0.80;99.90;;;;;;7393553;19;20319;-79
2022/02/12 08:41:02;;;;;;;12.38;7.25;;;-0.70;99.90;;;;;;7400106;19;20356;-79
2022/02/12 08:43:28;;;;;;;6.72;4.30;;;-0.40;99.90;;;;;;7402998;19;20814;-80
2022/02/12 08:46:15;;;;;;;9.20;7.53;;;-0.50;99.90;;;;;;7400033;19;20320;-79
2022/02/12 08:48:46;;;;;;;4.93;4.25;;;-0.50;99.90;;;;;;7374539;19;20333;-79
2022/02/12 08:51:15;;;;;;;3.42;2.88;;;-0.40;99.90;;;;;;7298088;19;20380;-80
2022/02/12 08:53:52;;;;;;;12.48;4.35;;;-0.40;99.90;;;;;;7351639;19;20380;-80
2022/02/12 08:57:10;;;;;;;14.55;5.22;;;-0.30;99.90;;;;;;7294580;19;2004429;-79
2022/02/12 09:00:06;;;;;;;7.28;4.13;;;-0.10;99.90;;;;;;7369966;19;20339;-79
2022/02/12 09:03:37;;;;;;;5.45;3.42;;;0.00;99.90;;;;;;7360607;19;20349;-79
2022/02/12 09:07:21;;;;;;;8.90;4.50;;;-0.10;99.90;;;;;;7200563;19;2004437;-79
2022/02/12 09:13:35;;;;;;;3.30;2.75;;;0.20;99.90;;;;;;7352708;19;20349;-79
2022/02/12 09:16:05;;;;;;;7.20;4.38;;;0.20;99.90;;;;;;7368664;19;20304;-80
2022/02/12 09:19:36;;;;;;;3.37;3.07;;;0.40;99.90;;;;;;7417494;19;20389;-80
2022/02/12 09:27:24;;;;;;;5.70;3.50;;;0.50;99.90;;;;;;7389010;19;20333;-79
2022/02/12 09:31:05;;;;;;;4.23;3.40;;;0.70;99.90;;;;;;7410842;19;20390;-79
2022/02/12 09:42:00;;;;;;;5.10;3.38;;;0.90;99.90;;;;;;7407875;19;20351;-80
2022/02/12 09:45:48;;;;;;;4.80;3.17;;;1.10;99.90;;;;;;7416105;19;20551;-80
2022/02/12 11:06:18;;;;;;;3.40;2.38;;;3.30;99.90;;;;;;7339662;19;20341;-81
2022/02/12 11:08:44;;;;;;;2.10;1.90;;;3.10;99.90;;;;;;7384773;19;20848;-80
2022/02/12 11:11:10;;;;;;;4.50;3.35;;;3.10;99.90;;;;;;7381078;19;20312;-80
2022/02/12 11:13:36;;;;;;;3.55;2.53;;;3.10;99.90;;;;;;7388201;19;20353;-81
2022/02/12 11:19:55;;;;;;;5.30;3.03;;;3.40;99.90;;;;;;7352409;19;20324;-81
2022/02/12 11:22:47;;;;;;;9.30;4.83;;;3.40;99.90;;;;;;7411371;19;20359;-81
2022/02/12 11:25:33;;;;;;;7.93;3.70;;;3.70;99.90;;;;;;7379937;19;20354;-80
2022/02/12 11:31:28;;;;;;;4.38;3.20;;;4.00;99.90;;;;;;7271534;19;2004447;-81
2022/02/12 11:34:09;;;;;;;4.85;2.38;;;4.10;99.90;;;;;;7381630;19;20328;-81
2022/02/12 11:36:39;;;;;;;6.80;5.03;;;4.10;99.90;;;;;;7385420;19;22342;-81
2022/02/12 11:39:15;;;;;;;5.38;2.70;;;3.90;99.90;;;;;;7384731;19;20341;-81
2022/02/12 11:41:49;;;;;;;3.20;2.85;;;3.70;99.90;;;;;;7389627;19;20305;-80
2022/02/12 11:51:38;;;;;;;4.13;2.40;;;4.30;99.90;;;;;;7420045;19;20344;-81
2022/02/12 11:54:29;;;;;;;3.63;2.80;;;4.60;99.90;;;;;;7394731;19;20331;-81
2022/02/12 11:57:45;;;;;;;4.00;2.33;;;5.00;99.90;;;;;;7398425;19;20357;-81
2022/02/12 12:04:11;;;;;;;3.50;2.50;;;4.70;99.90;;;;;;7384125;19;20408;-82
2022/02/12 12:06:58;;;;;;;3.88;2.22;;;5.20;99.90;;;;;;7284505;19;2004542;-81
2022/02/12 12:09:51;;;;;;;1.98;1.80;;;5.60;99.90;;;;;;7292531;19;2004764;-82
2022/02/12 12:13:34;;;;;;;2.50;2.17;;;5.80;99.90;;;;;;7405542;19;20351;-81
2022/02/12 12:17:03;;;;;;;2.58;2.10;;;5.70;99.90;;;;;;7211940;19;2004437;-82
2022/02/12 12:26:34;;;;;;;3.63;1.83;;;6.00;99.90;;;;;;7313349;19;20324;-80
2022/02/12 12:31:52;;;;;;;2.10;1.90;;;6.40;99.90;;;;;;7383723;19;20328;-81
2022/02/12 12:34:18;;;;;;;2.40;1.80;;;6.70;99.90;;;;;;7380865;19;20344;-81
2022/02/12 12:36:44;;;;;;;1.93;1.73;;;7.00;99.90;;;;;;7382299;19;20345;-81
2022/02/12 12:39:11;;;;;;;3.50;2.10;;;7.20;99.90;;;;;;7384002;19;20309;-82
2022/02/12 12:41:39;;;;;;;5.28;1.98;;;7.00;99.90;;;;;;7383703;19;20351;-82
2022/02/12 12:44:33;;;;;;;2.47;2.13;;;6.70;99.90;;;;;;7383264;19;20313;-81
2022/02/12 12:47:00;;;;;;;3.83;2.10;;;6.50;99.90;;;;;;7343906;19;20444;-80
2022/02/12 12:49:29;;;;;;;3.17;2.20;;;6.40;99.90;;;;;;7361255;19;20861;-81
2022/02/12 12:51:56;;;;;;;5.25;1.95;;;6.40;99.90;;;;;;7385343;19;20957;-81
2022/02/12 12:54:43;;;;;;;2.60;2.30;;;6.20;99.90;;;;;;7316025;19;20347;-81
2022/02/12 12:57:12;;;;;;;3.15;2.20;;;6.30;99.90;;;;;;7382183;19;20388;-81
2022/02/12 12:59:48;;;;;;;3.60;2.50;;;6.50;99.90;;;;;;7361797;19;20329;-81
2022/02/12 13:02:14;;;;;;;2.20;1.93;;;6.60;99.90;;;;;;7359014;19;20335;-81
2022/02/12 13:04:47;;;;;;;2.97;1.92;;;6.70;99.90;;;;;;7382140;19;20312;-81
2022/02/12 13:07:16;;;;;;;4.38;1.80;;;6.50;99.90;;;;;;7363291;19;20317;-81
2022/02/12 13:09:44;;;;;;;3.15;2.30;;;6.40;99.90;;;;;;7367821;19;20659;-81
2022/02/12 13:12:33;;;;;;;2.13;1.80;;;6.20;99.90;;;;;;7389487;19;20396;-81
2022/02/12 13:15:03;;;;;;;1.70;1.60;;;6.20;99.90;;;;;;7366199;19;20701;-81
2022/02/12 13:17:44;;;;;;;2.92;1.63;;;6.30;99.90;;;;;;7390642;19;20313;-80
2022/02/12 13:20:14;;;;;;;2.25;1.83;;;6.30;99.90;;;;;;7389579;19;20377;-81
2022/02/12 13:22:58;;;;;;;2.20;1.80;;;6.30;99.90;;;;;;7371422;19;20300;-81
2022/02/12 13:34:41;;;;;;;3.50;1.90;;;6.20;99.90;;;;;;7367745;19;20305;-80
2022/02/12 13:39:53;;;;;;;3.33;2.20;;;6.40;99.90;;;;;;7385624;19;20316;-79
2022/02/12 14:00:53;;;;;;;2.42;2.20;;;6.00;99.90;;;;;;7411115;19;20334;-80
2022/02/12 14:15:43;;;;;;;2.00;1.80;;;5.90;99.90;;;;;;7377290;19;20323;-80
2022/02/12 14:18:49;;;;;;;3.10;2.00;;;5.80;99.90;;;;;;7402995;19;20336;-80
2022/02/12 14:21:41;;;;;;;2.53;2.05;;;5.70;99.90;;;;;;7402568;19;20428;-81
2022/02/12 14:25:00;;;;;;;2.08;1.88;;;6.00;99.90;;;;;;7402559;19;20365;-80
2022/02/12 14:27:38;;;;;;;2.65;2.05;;;6.10;99.90;;;;;;7349219;19;20676;-80
2022/02/12 14:30:43;;;;;;;2.88;1.70;;;6.20;99.90;;;;;;7376161;19;20416;-81
2022/02/12 14:33:49;;;;;;;2.15;1.95;;;6.60;99.90;;;;;;7402860;19;20790;-80
2022/02/12 14:37:05;;;;;;;1.65;1.50;;;6.50;99.90;;;;;;7248897;19;20726;-80
2022/02/12 14:39:53;;;;;;;1.95;1.20;;;6.50;99.90;;;;;;7397690;19;20373;-80
2022/02/12 14:42:40;;;;;;;2.03;1.50;;;6.60;99.90;;;;;;7395063;19;20345;-80
2022/02/12 14:45:06;;;;;;;1.43;1.33;;;6.60;99.90;;;;;;7386548;19;20321;-79
2022/02/12 14:47:32;;;;;;;1.48;1.38;;;6.50;99.90;;;;;;7388048;19;20324;-79
2022/02/12 14:49:58;;;;;;;1.30;1.20;;;5.90;99.90;;;;;;7387025;19;20353;-79
2022/02/12 14:52:23;;;;;;;1.17;1.10;;;5.70;99.90;;;;;;7387169;19;20367;-79
2022/02/12 14:54:49;;;;;;;1.45;1.35;;;5.70;99.90;;;;;;7390050;19;20376;-80
2022/02/12 14:57:15;;;;;;;2.80;1.45;;;5.50;99.90;;;;;;7391687;19;20320;-80
2022/02/12 14:59:42;;;;;;;1.50;1.40;;;5.40;99.90;;;;;;7387464;19;20320;-80
2022/02/12 15:02:08;;;;;;;1.17;1.08;;;5.60;99.90;;;;;;7390825;19;20308;-80
2022/02/12 15:04:34;;;;;;;3.20;1.13;;;5.40;99.90;;;;;;7389243;19;20392;-81
2022/02/12 15:07:00;;;;;;;1.35;1.17;;;5.40;99.90;;;;;;7389212;19;20911;-80
2022/02/12 15:09:25;;;;;;;1.70;1.13;;;5.50;99.90;;;;;;7392136;19;20319;-79
2022/02/12 15:11:54;;;;;;;1.20;1.10;;;5.40;99.90;;;;;;7389825;19;20398;-79
2022/02/12 15:14:20;;;;;;;1.53;1.43;;;5.20;99.90;;;;;;7391090;19;20341;-80
2022/02/12 15:16:50;;;;;;;1.85;1.38;;;5.20;99.90;;;;;;7399286;19;20371;-80
2022/02/12 15:19:19;;;;;;;1.77;1.60;;;5.10;99.90;;;;;;7394908;19;20315;-80
2022/02/12 15:21:46;;;;;;;2.85;1.30;;;5.20;99.90;;;;;;7397916;19;20359;-80
2022/02/12 15:24:15;;;;;;;1.40;1.30;;;5.00;99.90;;;;;;7386564;19;20330;-79
2022/02/12 15:26:53;;;;;;;1.60;1.50;;;5.00;99.90;;;;;;7394210;19;20324;-79
2022/02/12 15:29:21;;;;;;;1.67;1.48;;;4.90;99.90;;;;;;7369775;19;20872;-80
2022/02/12 15:31:47;;;;;;;1.50;1.40;;;4.80;99.90;;;;;;7389040;19;20345;-79
2022/02/12 15:34:19;;;;;;;1.48;1.35;;;4.70;99.90;;;;;;7391843;19;20325;-79
2022/02/12 15:36:47;;;;;;;1.60;1.50;;;4.60;99.90;;;;;;7373036;19;20328;-79
2022/02/12 15:39:13;;;;;;;2.55;1.60;;;4.60;99.90;;;;;;7387841;19;20316;-79
2022/02/12 15:41:43;;;;;;;10.80;7.10;;;4.50;99.90;;;;;;7390819;19;20361;-80
2022/02/12 15:44:14;;;;;;;19.67;13.77;;;4.20;99.90;;;;;;7393500;19;20361;-80
2022/02/12 15:46:44;;;;;;;4.30;2.72;;;4.20;99.90;;;;;;7389679;19;20327;-80
2022/02/12 15:49:10;;;;;;;4.07;2.35;;;4.10;99.90;;;;;;7393006;19;20329;-78
2022/02/12 15:51:38;;;;;;;2.28;2.03;;;4.10;99.90;;;;;;7388336;19;20304;-79
2022/02/12 15:54:13;;;;;;;3.05;1.98;;;4.00;99.90;;;;;;7371086;19;20348;-79
2022/02/12 15:56:39;;;;;;;1.67;1.58;;;3.90;99.90;;;;;;7364793;19;20835;-79
2022/02/12 15:59:06;;;;;;;2.03;1.75;;;3.80;99.90;;;;;;7388801;19;20336;-79
2022/02/12 16:01:32;;;;;;;2.10;2.00;;;3.70;99.90;;;;;;7389193;19;20374;-80
2022/02/12 16:03:58;;;;;;;1.73;1.63;;;3.70;99.90;;;;;;7389147;19;20718;-79
2022/02/12 16:06:24;;;;;;;2.20;2.00;;;3.70;99.90;;;;;;7389640;19;20316;-80
2022/02/12 16:08:53;;;;;;;3.30;2.58;;;3.60;99.90;;;;;;7392733;19;20413;-80
2022/02/12 16:11:24;;;;;;;3.80;2.90;;;3.70;99.90;;;;;;7369550;19;20650;-80
2022/02/12 16:14:13;;;;;;;3.05;2.35;;;3.70;99.90;;;;;;7285428;19;2004473;-79
2022/02/12 16:17:00;;;;;;;4.60;4.20;;;3.60;99.90;;;;;;7386162;19;20320;-80
2022/02/12 16:19:26;;;;;;;7.90;4.72;;;3.50;99.90;;;;;;7344601;19;20313;-80
2022/02/12 16:21:54;;;;;;;6.93;6.03;;;3.50;99.90;;;;;;7390593;19;20351;-79
2022/02/12 16:24:28;;;;;;;9.30;6.72;;;3.40;99.90;;;;;;7392005;19;20353;-80
2022/02/12 16:26:58;;;;;;;8.73;5.75;;;3.40;99.90;;;;;;7339728;19;21010;-80
2022/02/12 16:29:35;;;;;;;5.93;5.13;;;3.40;99.90;;;;;;7391838;19;20359;-80
2022/02/12 16:32:07;;;;;;;8.47;5.03;;;3.40;99.90;;;;;;7392941;19;20655;-81
2022/02/12 16:34:43;;;;;;;4.60;4.20;;;3.30;99.90;;;;;;7288685;19;2004414;-80
2022/02/12 16:37:56;;;;;;;3.97;3.58;;;3.20;99.90;;;;;;7398373;19;20352;-78
2022/02/12 16:48:08;;;;;;;4.90;3.67;;;2.90;99.90;;;;;;7377648;19;20324;-79
2022/02/12 16:50:37;;;;;;;4.45;3.88;;;2.80;99.90;;;;;;7380916;19;20723;-78